Time;durP1;ratioP1;P1;durP2;ratioP2;P2;SDS_P1;SDS_P2;PMS_P1;PMS_P2;Temp;Humidity;BMP_temperature;BMP_pressure;BME280_temperature;BME280_humidity;BME280_pressure;Samples;Min_cycle;Max_cycle;Signal;HPM_P1;HPM_P2
2022/05/03 00:01:58;;;;;;;15.78;6.12;;;;;;;10.72;46.25;100724.30;1654861;86;26519;-60
2022/05/03 00:04:35;;;;;;;10.38;5.05;;;;;;;10.69;46.27;100723.56;1664153;85;98854;-60
2022/05/03 00:07:22;;;;;;;16.00;5.62;;;;;;;10.65;46.34;100720.14;1664164;85;26462;-61
2022/05/03 00:10:11;;;;;;;20.23;5.97;;;;;;;10.62;46.35;100717.59;1655929;84;98892;-61
2022/05/03 00:13:02;;;;;;;10.63;5.40;;;;;;;10.61;46.46;100714.97;1658514;86;27460;-61
2022/05/03 00:15:32;;;;;;;9.33;4.85;;;;;;;10.60;46.52;100714.57;1663603;84;98912;-60
2022/05/03 00:18:00;;;;;;;10.72;5.17;;;;;;;10.59;46.53;100709.68;1652306;86;26665;-60
2022/05/03 00:20:27;;;;;;;13.35;5.40;;;;;;;10.58;46.56;100703.05;1658692;84;99199;-60
2022/05/03 00:22:56;;;;;;;11.18;5.58;;;;;;;10.58;46.59;100709.28;1659548;85;25839;-60
2022/05/03 00:25:22;;;;;;;11.70;5.45;;;;;;;10.57;46.58;100708.88;1633147;86;27342;-60
2022/05/03 00:27:51;;;;;;;13.18;5.00;;;;;;;10.54;46.66;100712.15;1652134;86;99429;-60
2022/05/03 00:30:18;;;;;;;17.67;5.67;;;;;;;10.52;46.70;100701.49;1654200;86;25763;-60
2022/05/03 00:32:43;;;;;;;7.22;4.40;;;;;;;10.53;46.72;100703.70;1653715;86;99266;-60
2022/05/03 00:35:11;;;;;;;18.37;5.35;;;;;;;10.51;46.75;100703.77;1653732;86;25826;-60
2022/05/03 00:37:37;;;;;;;11.35;6.40;;;;;;;10.48;46.79;100710.59;1655265;86;27462;-60
2022/05/03 00:40:06;;;;;;;20.43;6.10;;;;;;;10.45;46.83;100704.03;1651865;86;98972;-60
2022/05/03 00:42:49;;;;;;;21.35;6.95;;;;;;;10.45;46.90;100709.85;1656971;86;25736;-61
2022/05/03 00:45:39;;;;;;;13.68;7.25;;;;;;;10.40;47.02;100701.54;1649294;86;98994;-60
2022/05/03 00:48:16;;;;;;;14.93;7.53;;;;;;;10.38;47.14;100703.91;1646155;86;25852;-60
2022/05/03 00:51:03;;;;;;;14.65;7.75;;;;;;;10.35;47.20;100701.36;1629716;87;99122;-61
2022/05/03 00:53:54;;;;;;;17.17;7.30;;;;;;;10.31;47.39;100707.31;1661586;85;25855;-60
2022/05/03 00:57:08;;;;;;;14.35;7.67;;;;;;;10.28;47.40;100704.76;1635688;85;99130;-60
2022/05/03 00:59:53;;;;;;;19.80;8.03;;;;;;;;;;1659182;85;25858;-60
2022/05/03 01:02:27;;;;;;;16.60;8.33;;;;;;;10.20;47.77;100701.98;1665713;85;71072;-60
2022/05/03 01:05:01;;;;;;;16.73;8.23;;;;;;;10.17;47.92;100698.06;1668792;84;27542;-60
2022/05/03 01:07:34;;;;;;;15.20;7.33;;;;;;;10.16;48.08;100698.53;1663716;84;26365;-61
2022/05/03 01:10:20;;;;;;;15.83;7.83;;;;;;;10.15;48.18;100695.45;1635247;85;98762;-60
2022/05/03 01:13:31;;;;;;;12.53;7.35;;;;;;;10.16;48.30;100697.19;1666186;85;26346;-60
2022/05/03 01:16:05;;;;;;;21.97;7.15;;;;;;;10.13;48.35;100696.45;1665451;84;98930;-61
2022/05/03 01:18:54;;;;;;;19.73;7.60;;;;;;;10.06;48.52;100695.82;1650702;85;27117;-60
2022/05/03 01:21:47;;;;;;;17.27;7.40;;;;;;;10.02;48.63;100691.52;1666356;85;98857;-61
2022/05/03 01:24:33;;;;;;;14.33;6.65;;;;;;;9.97;48.78;100681.46;1668222;85;26491;-60
2022/05/03 01:27:29;;;;;;;16.42;6.70;;;;;;;9.94;48.93;100690.48;1656658;84;98646;-60
2022/05/03 01:30:00;;;;;;;13.90;6.95;;;;;;;9.94;49.04;100678.91;1667352;85;26081;-60
2022/05/03 01:32:26;;;;;;;;;;;;;;;9.92;49.12;100683.45;1663944;85;98876;-60
2022/05/03 01:34:55;;;;;;;14.23;7.10;;;;;;;9.90;49.29;100686.19;1660500;85;26442;-60
2022/05/03 01:37:50;;;;;;;15.70;7.22;;;;;;;9.85;49.27;100684.16;1665705;85;26482;-60
2022/05/03 01:40:27;;;;;;;11.10;6.97;;;;;;;9.84;49.31;100685.09;1659816;85;98763;-63
2022/05/03 01:43:22;;;;;;;22.37;7.97;;;;;;;9.81;49.41;100691.91;1664610;85;25764;-60
2022/05/03 01:46:16;;;;;;;15.63;6.60;;;;;;;9.76;49.47;100688.08;1635936;85;98731;-62
2022/05/03 01:51:58;;;;;;;18.95;8.13;;;;;;;9.70;49.62;100689.66;1668093;85;98795;-60
2022/05/03 01:54:58;;;;;;;12.23;7.33;;;;;;;9.66;49.71;100688.49;1645146;85;26219;-60
2022/05/03 01:57:49;;;;;;;14.78;7.67;;;;;;;9.61;49.74;100686.00;1662991;84;98546;-60
2022/05/03 02:00:17;;;;;;;18.23;6.80;;;;;;;9.57;49.83;100683.03;1666956;85;27470;-62
2022/05/03 02:03:09;;;;;;;15.72;7.08;;;;;;;9.56;49.91;100681.28;1666060;84;98785;-60
2022/05/03 02:06:06;;;;;;;19.52;7.10;;;;;;;9.55;49.95;100678.20;1635226;85;26501;-62
2022/05/03 02:08:56;;;;;;;12.23;7.17;;;;;;;9.53;49.97;100675.18;1661734;85;98727;-60
2022/05/03 02:11:50;;;;;;;13.28;7.20;;;;;;;9.52;50.04;100677.45;1663254;85;25744;-60
2022/05/03 02:14:55;;;;;;;13.77;6.53;;;;;;;9.51;50.12;100671.69;1661011;85;98790;-61
2022/05/03 02:17:54;;;;;;;16.70;6.67;;;;;;;9.48;50.18;100674.48;1640414;85;25789;-61
2022/05/03 02:20:46;;;;;;;13.03;6.67;;;;;;;9.43;50.27;100671.52;1664625;85;98841;-61
2022/05/03 02:23:48;;;;;;;18.48;7.10;;;;;;;9.40;50.34;100675.65;1666211;85;26525;-62
2022/05/03 02:26:37;;;;;;;12.37;7.08;;;;;;;9.38;50.45;100672.16;1562854;89;98854;-61
2022/05/03 02:29:23;;;;;;;16.93;6.60;;;;;;;9.35;50.57;100671.41;1649378;85;27600;-62
2022/05/03 02:32:04;;;;;;;11.83;6.50;;;;;;;9.33;50.71;100666.58;1663656;85;25757;-60
2022/05/03 02:35:01;;;;;;;12.65;7.05;;;;;;;9.31;50.78;100669.77;1662856;85;98737;-61
2022/05/03 02:37:49;;;;;;;12.40;7.00;;;;;;;9.27;50.88;100670.36;1638324;87;26113;-62
2022/05/03 02:40:25;;;;;;;18.52;7.35;;;;;;;9.25;50.98;100665.99;1659706;85;98459;-60
2022/05/03 02:42:59;;;;;;;13.68;7.65;;;;;;;9.21;51.09;100671.92;1667466;85;25764;-60
2022/05/03 02:45:26;;;;;;;15.80;8.03;;;;;;;9.18;51.16;100667.16;1665448;85;97805;-61
2022/05/03 02:48:14;;;;;;;16.23;8.73;;;;;;;9.14;51.24;100668.20;1662868;85;25734;-62
2022/05/03 02:50:59;;;;;;;18.27;8.43;;;;;;;9.11;51.32;100669.18;1641730;85;98755;-60
2022/05/03 02:53:42;;;;;;;19.65;9.75;;;;;;;9.09;51.38;100673.71;1664858;85;25862;-60
2022/05/03 02:56:35;;;;;;;21.10;10.40;;;;;;;9.04;51.43;100667.66;1665471;85;27540;-59
2022/05/03 02:59:01;;;;;;;;;;;;;;;9.00;51.50;100678.93;1649820;86;98512;-60
2022/05/03 03:02:04;;;;;;;20.27;9.95;;;;;;;8.98;51.73;100674.57;1643658;86;25909;-60
2022/05/03 03:04:44;;;;;;;25.85;10.23;;;;;;;8.95;51.67;100676.02;1646413;86;98548;-60
2022/05/03 03:07:16;;;;;;;20.30;10.43;;;;;;;8.91;51.70;100681.06;1657074;86;25880;-60
2022/05/03 03:09:46;;;;;;;23.52;10.82;;;;;;;8.88;51.72;100675.83;1651705;86;98803;-60
2022/05/03 03:12:24;;;;;;;18.17;10.13;;;;;;;8.87;51.81;100684.77;1648325;86;25874;-59
2022/05/03 03:15:03;;;;;;;19.80;9.55;;;;;;;8.86;51.83;100681.69;1649467;86;99057;-60
2022/05/03 03:17:31;;;;;;;18.42;10.35;;;;;;;8.83;51.93;100686.68;1645192;86;25958;-60
2022/05/03 03:20:10;;;;;;;28.83;10.25;;;;;;;8.78;51.96;100688.64;1647508;86;25816;-60
2022/05/03 03:22:44;;;;;;;26.73;11.43;;;;;;;8.73;52.12;100688.80;1653127;86;98780;-60
2022/05/03 03:25:20;;;;;;;25.05;10.58;;;;;;;8.71;52.20;100687.11;1664036;85;25806;-60
2022/05/03 03:27:53;;;;;;;26.33;11.88;;;;;;;8.67;52.25;100694.36;1660359;85;98673;-60
2022/05/03 03:30:20;;;;;;;21.93;9.28;;;;;;;8.62;52.40;100700.79;1660457;85;26528;-60
2022/05/03 03:32:50;;;;;;;21.33;8.83;;;;;;;8.59;52.44;100700.44;1693608;83;98772;-60
2022/05/03 03:35:18;;;;;;;22.95;9.93;;;;;;;8.59;52.56;100705.78;1696481;84;27401;-60
2022/05/03 03:37:50;;;;;;;18.15;8.83;;;;;;;8.57;52.79;100703.62;1696159;84;25829;-60
2022/05/03 03:40:18;;;;;;;24.47;9.33;;;;;;;8.56;52.83;100716.57;1657792;84;98565;-61
2022/05/03 03:42:47;;;;;;;16.73;7.75;;;;;;;8.53;53.09;100705.98;1666712;85;26101;-60
2022/05/03 03:45:16;;;;;;;17.07;7.90;;;;;;;8.53;53.10;100707.78;1655452;85;98729;-60
2022/05/03 03:47:46;;;;;;;19.17;8.33;;;;;;;8.46;53.10;100716.47;1640358;85;27537;-60
2022/05/03 03:50:13;;;;;;;18.87;7.92;;;;;;;8.37;53.42;100705.63;1659014;85;27165;-60
2022/05/03 03:52:46;;;;;;;17.62;7.85;;;;;;;8.41;53.53;100710.41;1652900;86;99040;-62
2022/05/03 03:55:13;;;;;;;18.60;7.10;;;;;;;8.42;53.60;100705.02;1655961;86;25887;-61
2022/05/03 03:57:41;;;;;;;15.48;6.65;;;;;;;8.41;53.66;100704.60;1662668;84;98569;-61
2022/05/03 04:00:11;;;;;;;12.33;7.28;;;;;;;8.40;53.65;100711.33;1658251;85;27492;-60
2022/05/03 04:02:43;;;;;;;17.05;6.72;;;;;;;8.40;53.77;100705.98;1645567;86;98673;-60
2022/05/03 04:05:23;;;;;;;13.20;6.67;;;;;;;8.40;53.87;100701.98;1660266;86;25790;-60
2022/05/03 04:07:54;;;;;;;12.80;6.72;;;;;;;8.40;53.83;100708.66;1667447;85;26339;-61
2022/05/03 04:10:21;;;;;;;16.15;7.03;;;;;;;8.40;53.93;100706.86;1659274;84;98629;-61
2022/05/03 04:12:49;;;;;;;20.50;7.45;;;;;;;8.45;54.03;100713.38;1661477;85;28242;-61
2022/05/03 04:15:16;;;;;;;11.78;6.45;;;;;;;8.49;54.12;100712.36;1659090;85;98742;-61
2022/05/03 04:17:44;;;;;;;16.75;8.40;;;;;;;8.53;54.10;100711.80;1658213;86;25868;-61
2022/05/03 04:20:16;;;;;;;14.23;7.65;;;;;;;8.55;54.26;100712.16;1662792;85;25947;-61
2022/05/03 04:22:41;;;;;;;20.65;8.68;;;;;;;8.59;54.31;100717.80;1658818;85;98653;-61
2022/05/03 04:25:10;;;;;;;16.10;8.18;;;;;;;8.63;54.36;100721.24;1648934;86;27482;-61
2022/05/03 04:27:37;;;;;;;17.73;8.68;;;;;;;8.63;54.41;100712.77;1655306;86;98782;-61
2022/05/03 04:30:05;;;;;;;16.40;8.58;;;;;;;8.67;54.48;100723.76;1649619;86;26545;-61
2022/05/03 04:32:34;;;;;;;19.65;7.10;;;;;;;8.70;54.54;100724.98;1648649;86;98938;-61
2022/05/03 04:35:01;;;;;;;18.90;7.72;;;;;;;8.74;54.58;100725.75;1661855;85;25710;-61
2022/05/03 04:37:28;;;;;;;15.00;8.15;;;;;;;8.78;54.58;100725.59;1661487;85;27365;-61
2022/05/03 04:39:54;;;;;;;16.00;8.40;;;;;;;8.81;54.66;100720.61;1658633;85;98717;-61
2022/05/03 04:42:20;;;;;;;26.87;8.23;;;;;;;8.86;54.71;100728.47;1694772;84;25763;-60
2022/05/03 04:44:46;;;;;;;22.05;8.53;;;;;;;8.89;54.71;100724.35;1659881;84;98930;-61
2022/05/03 04:47:12;;;;;;;18.42;7.87;;;;;;;8.93;54.72;100731.33;1656366;85;25755;-61
2022/05/03 04:49:41;;;;;;;16.60;7.10;;;;;;;8.96;54.75;100733.90;1657990;85;27620;-61
2022/05/03 04:52:08;;;;;;;14.07;6.78;;;;;;;8.98;54.79;100730.70;1658249;85;98821;-60
2022/05/03 04:54:36;;;;;;;13.80;7.12;;;;;;;9.03;54.80;100738.10;1658016;86;26387;-60
2022/05/03 04:57:06;;;;;;;18.17;6.92;;;;;;;9.09;54.83;100737.42;1665534;85;98919;-60
2022/05/03 04:59:33;;;;;;;16.55;7.40;;;;;;;9.19;54.84;100738.43;1690599;84;26316;-60
2022/05/03 05:01:59;;;;;;;12.30;7.45;;;;;;;9.27;54.80;100726.52;1666951;85;27321;-60
2022/05/03 05:04:27;;;;;;;18.00;7.22;;;;;;;9.33;54.77;100724.95;1664059;85;98689;-61
2022/05/03 05:06:57;;;;;;;18.17;7.92;;;;;;;9.37;54.76;100728.39;1670299;85;26414;-61
2022/05/03 05:09:23;;;;;;;19.23;9.08;;;;;;;9.41;54.82;100736.72;1684439;84;98881;-61
2022/05/03 05:11:49;;;;;;;18.27;8.78;;;;;;;9.44;54.84;100737.47;1685474;84;25773;-61
2022/05/03 05:14:20;;;;;;;17.35;7.75;;;;;;;9.50;54.91;100743.06;1672928;85;27607;-61
2022/05/03 05:16:44;;;;;;;20.48;9.80;;;;;;;9.57;54.95;100743.70;1666865;85;98736;-61
2022/05/03 05:19:10;;;;;;;14.53;8.95;;;;;;;9.63;54.97;100744.81;1670545;85;25453;-61
2022/05/03 05:21:38;;;;;;;20.80;7.72;;;;;;;9.69;54.97;100747.26;1668304;85;98747;-61
2022/05/03 05:24:10;;;;;;;16.17;7.60;;;;;;;9.75;54.94;100745.69;1672401;85;25841;-61
2022/05/03 05:26:36;;;;;;;16.32;8.10;;;;;;;9.81;54.92;100740.09;1667353;85;98922;-60
2022/05/03 05:29:02;;;;;;;15.03;7.33;;;;;;;9.91;54.91;100743.28;1672490;85;25699;-60
2022/05/03 05:31:28;;;;;;;17.67;8.68;;;;;;;10.01;54.88;100746.88;1666257;85;25853;-61
2022/05/03 05:33:56;;;;;;;16.35;7.62;;;;;;;10.16;54.84;100744.53;1688121;84;98979;-60
2022/05/03 05:36:22;;;;;;;16.62;7.10;;;;;;;10.30;54.77;100741.73;1686071;84;26213;-60
2022/05/03 05:38:50;;;;;;;13.88;7.17;;;;;;;10.44;54.72;100741.14;1683540;84;99066;-62
2022/05/03 05:41:17;;;;;;;12.93;6.62;;;;;;;10.54;54.59;100737.14;1687819;83;25700;-60
2022/05/03 05:43:43;;;;;;;15.55;7.10;;;;;;;10.61;54.45;100735.95;1692191;84;26815;-61
2022/05/03 05:46:11;;;;;;;17.42;6.22;;;;;;;10.68;54.39;100740.12;1661788;85;98971;-61
2022/05/03 05:48:39;;;;;;;15.05;5.78;;;;;;;10.74;54.27;100734.96;1668136;84;26409;-60
2022/05/03 05:51:06;;;;;;;11.95;6.40;;;;;;;10.81;54.14;100736.91;1689728;84;98989;-60
2022/05/03 05:53:32;;;;;;;10.75;5.42;;;;;;;10.88;54.06;100730.34;1663329;85;25800;-60
2022/05/03 05:56:01;;;;;;;10.13;4.70;;;;;;;10.95;53.96;100729.15;1687573;84;26895;-60
2022/05/03 05:58:27;;;;;;;9.10;5.12;;;;;;;11.03;53.84;100736.39;1667020;85;98982;-60
2022/05/03 06:00:54;;;;;;;16.00;5.28;;;;;;;11.12;53.72;100737.80;1665737;84;25847;-63
2022/05/03 06:03:22;;;;;;;9.38;4.37;;;;;;;11.22;53.59;100743.16;1664265;85;98937;-60
2022/05/03 06:05:49;;;;;;;7.28;4.17;;;;;;;11.33;53.49;100744.42;1683057;84;25845;-60
2022/05/03 06:08:16;;;;;;;11.08;3.67;;;;;;;11.48;53.35;100743.33;1667200;84;26476;-62
2022/05/03 06:10:42;;;;;;;8.10;3.10;;;;;;;11.62;53.20;100747.59;1660817;85;98854;-62
2022/05/03 06:13:10;;;;;;;3.85;2.80;;;;;;;11.74;52.97;100741.66;1669972;85;25906;-59
2022/05/03 06:15:37;;;;;;;11.83;3.00;;;;;;;11.83;52.73;100740.39;1659906;85;99169;-59
2022/05/03 06:18:04;;;;;;;8.68;2.80;;;;;;;11.91;52.51;100739.56;1682765;84;26327;-59
2022/05/03 06:20:30;;;;;;;3.98;2.77;;;;;;;12.01;52.37;100748.92;1658264;85;98877;-63
2022/05/03 06:22:56;;;;;;;5.33;2.90;;;;;;;12.10;52.17;100753.86;1665774;85;26013;-62
2022/05/03 06:25:23;;;;;;;12.43;3.12;;;;;;;12.19;52.00;100751.20;1663236;85;25861;-62
2022/05/03 06:27:51;;;;;;;8.68;2.75;;;;;;;12.25;51.79;100749.09;1683452;84;98861;-61
2022/05/03 06:30:17;;;;;;;5.20;2.83;;;;;;;12.39;51.67;100739.48;1665656;85;25932;-61
2022/05/03 06:32:45;;;;;;;6.55;3.08;;;;;;;12.49;51.21;100748.84;1666308;85;98915;-61
2022/05/03 06:35:14;;;;;;;3.83;2.17;;;;;;;12.56;51.12;100751.62;1667334;85;26374;-61
2022/05/03 06:37:42;;;;;;;6.25;2.30;;;;;;;12.62;50.72;100750.84;1658333;85;25839;-61
2022/05/03 06:40:10;;;;;;;3.77;1.98;;;;;;;12.62;50.56;100747.28;1680852;84;98762;-62
2022/05/03 06:42:40;;;;;;;2.50;1.90;;;;;;;12.57;50.20;100738.09;1661779;85;26330;-60
2022/05/03 06:45:11;;;;;;;6.40;2.45;;;;;;;12.53;50.04;100735.64;1685107;84;98962;-60
2022/05/03 06:47:39;;;;;;;5.80;2.67;;;;;;;12.53;49.92;100743.70;1664087;85;25761;-61
2022/05/03 06:50:08;;;;;;;4.60;2.40;;;;;;;12.52;49.71;100745.52;1663561;85;25847;-61
2022/05/03 06:52:35;;;;;;;6.58;2.50;;;;;;;12.54;49.56;100749.48;1679878;84;98699;-61
2022/05/03 06:55:00;;;;;;;7.40;2.45;;;;;;;12.55;49.46;100748.53;1661549;85;27071;-60
2022/05/03 06:57:26;;;;;;;6.58;2.60;;;;;;;12.58;49.35;100755.97;1662929;85;98945;-61
2022/05/03 06:59:52;;;;;;;3.25;1.95;;;;;;;12.67;49.24;100753.30;1668488;85;27983;-61
2022/05/03 07:02:18;;;;;;;5.58;2.20;;;;;;;12.77;49.12;100745.64;1667185;85;25940;-61
2022/05/03 07:04:46;;;;;;;6.47;2.35;;;;;;;12.79;48.97;100745.95;1665419;84;100093;-61
2022/05/03 07:07:13;;;;;;;5.92;2.58;;;;;;;12.78;48.80;100739.31;1681187;83;25932;-61
2022/05/03 07:09:41;;;;;;;15.45;2.65;;;;;;;12.80;48.72;100740.97;1675082;84;98747;-60
2022/05/03 07:12:11;;;;;;;5.05;2.42;;;;;;;12.87;48.60;100754.98;1659099;85;25765;-61
2022/05/03 07:14:39;;;;;;;4.50;1.95;;;;;;;12.92;48.47;100756.96;1684529;84;100803;-61
2022/05/03 07:17:05;;;;;;;5.67;2.22;;;;;;;12.98;48.40;100756.17;1678280;84;28105;-61
2022/05/03 07:25:00;;;;;;;4.35;2.22;;;;;;;13.12;47.97;100762.15;1653701;85;26219;-60
2022/05/03 07:27:25;;;;;;;6.00;2.30;;;;;;;13.20;47.85;100765.83;1660179;85;98718;-60
2022/05/03 07:29:51;;;;;;;6.47;2.27;;;;;;;13.33;47.84;100767.79;1668672;85;28148;-60
2022/05/03 07:32:19;;;;;;;5.75;2.75;;;;;;;13.42;47.60;100766.44;1680819;84;25889;-61
2022/05/03 07:34:46;;;;;;;8.00;2.95;;;;;;;13.40;47.48;100757.56;1659953;85;98671;-61
2022/05/03 07:37:16;;;;;;;8.55;2.92;;;;;;;13.44;47.13;100763.19;1664100;85;26420;-61
2022/05/03 07:39:45;;;;;;;10.00;2.90;;;;;;;13.44;47.22;100756.93;1663621;85;98737;-61
2022/05/03 07:42:12;;;;;;;6.55;3.12;;;;;;;13.48;47.13;100754.47;1674968;84;28452;-61
2022/05/03 07:44:38;;;;;;;9.53;2.90;;;;;;;13.50;46.89;100759.30;1681320;84;98899;-61
2022/05/03 07:47:06;;;;;;;6.15;3.02;;;;;;;13.55;46.86;100753.19;1682730;84;26379;-61
2022/05/03 07:49:32;;;;;;;6.25;3.08;;;;;;;13.64;46.73;100760.77;1665818;85;25837;-61
2022/05/03 07:51:58;;;;;;;6.30;2.80;;;;;;;13.64;46.36;100765.67;1680043;84;98596;-61
2022/05/03 07:54:26;;;;;;;5.92;2.70;;;;;;;13.67;46.35;100764.64;1662893;85;27347;-61
2022/05/03 07:56:52;;;;;;;6.05;3.22;;;;;;;13.71;46.06;100770.73;1665416;85;99019;-62
2022/05/03 07:59:23;;;;;;;10.35;3.10;;;;;;;13.71;46.16;100774.30;1660085;85;25701;-60
2022/05/03 08:01:50;;;;;;;14.05;3.02;;;;;;;13.80;46.17;100772.45;1660288;85;26496;-62
2022/05/03 08:04:17;;;;;;;7.67;3.87;;;;;;;13.87;45.85;100772.51;1660413;85;98930;-62
2022/05/03 08:06:43;;;;;;;5.67;3.37;;;;;;;13.92;45.50;100774.95;1659101;85;26829;-61
2022/05/03 08:09:11;;;;;;;10.32;3.85;;;;;;;13.95;45.63;100773.44;1657510;85;98784;-62
2022/05/03 08:11:38;;;;;;;13.58;3.25;;;;;;;14.06;45.61;100779.09;1659217;85;25891;-62
2022/05/03 08:14:05;;;;;;;5.42;3.35;;;;;;;14.20;45.56;100778.33;1662573;85;25970;-63
2022/05/03 08:16:35;;;;;;;7.78;3.87;;;;;;;14.32;45.47;100776.29;1642110;86;98707;-62
2022/05/03 08:19:01;;;;;;;7.00;3.70;;;;;;;14.53;45.38;100779.14;1652550;86;27495;-61
2022/05/03 08:21:32;;;;;;;6.50;2.90;;;;;;;14.55;45.16;100786.67;1652384;86;98712;-60
2022/05/03 08:24:01;;;;;;;9.33;3.30;;;;;;;14.64;45.17;100782.57;1658330;84;25964;-62
2022/05/03 08:26:27;;;;;;;7.10;3.12;;;;;;;14.66;44.50;100779.78;1652967;86;27752;-60
2022/05/03 08:28:55;;;;;;;5.17;3.33;;;;;;;14.66;44.94;100777.09;1645011;86;98627;-61
2022/05/03 08:31:24;;;;;;;10.90;3.42;;;;;;;14.64;44.86;100777.66;1661171;85;27502;-60
2022/05/03 08:33:52;;;;;;;6.12;3.87;;;;;;;14.58;44.73;100773.48;1651860;84;98933;-60
2022/05/03 08:36:18;;;;;;;12.10;4.75;;;;;;;14.52;44.74;100776.05;1651608;86;26362;-60
2022/05/03 08:44:16;;;;;;;5.53;3.65;;;;;;;14.54;44.51;100779.53;1653753;86;27482;-62
2022/05/03 08:46:49;;;;;;;8.23;3.42;;;;;;;14.55;44.31;100775.01;1655181;86;98752;-61
2022/05/03 08:49:17;;;;;;;7.00;3.60;;;;;;;14.53;44.25;100775.09;1665143;85;25888;-60
2022/05/03 08:51:44;;;;;;;8.90;4.40;;;;;;;14.55;44.34;100771.83;1649691;86;98700;-61
2022/05/03 08:54:11;;;;;;;6.35;3.47;;;;;;;14.61;44.21;100768.78;1657084;86;26068;-61
2022/05/03 08:56:39;;;;;;;6.60;4.25;;;;;;;14.64;44.24;100770.91;1651605;86;98823;-61
2022/05/03 08:59:08;;;;;;;7.45;4.35;;;;;;;14.68;44.02;100770.64;1647239;86;25812;-61
2022/05/03 09:01:36;;;;;;;8.98;3.37;;;;;;;14.74;44.10;100772.98;1649635;86;25922;-62
2022/05/03 09:04:03;;;;;;;8.60;4.28;;;;;;;14.77;43.97;100767.89;1651528;86;98810;-58
2022/05/03 09:06:48;;;;;;;8.05;4.28;;;;;;;14.84;44.07;100765.22;1652518;85;25803;-59
2022/05/03 09:09:20;;;;;;;8.40;5.17;;;;;;;14.89;43.99;100759.06;1644444;86;99034;-58
2022/05/03 09:11:53;;;;;;;7.20;4.30;;;;;;;14.92;43.97;100764.28;1656828;85;25848;-61
2022/05/03 09:14:39;;;;;;;14.28;5.53;;;;;;;15.01;43.85;100766.91;1667477;85;25780;-59
2022/05/03 09:17:06;;;;;;;11.85;5.17;;;;;;;15.00;43.42;100755.73;1661281;85;98922;-59
2022/05/03 09:19:33;;;;;;;12.35;5.85;;;;;;;15.02;43.24;100764.12;1652740;84;25848;-59
2022/05/03 09:25:06;;;;;;;13.35;5.62;;;;;;;15.18;43.33;100750.09;1659750;85;26780;-58
2022/05/03 09:27:32;;;;;;;9.33;4.65;;;;;;;15.23;43.23;100756.56;1663620;84;98876;-60
2022/05/03 09:30:05;;;;;;;9.83;5.25;;;;;;;15.18;43.30;100748.73;1663912;84;25810;-68
2022/05/03 09:32:42;;;;;;;12.80;5.28;;;;;;;15.14;43.22;100753.06;1667083;85;25760;-67
2022/05/03 09:35:32;;;;;;;9.08;5.10;;;;;;;15.15;43.25;100751.63;1639320;85;99293;-66
2022/05/03 09:38:03;;;;;;;10.98;4.62;;;;;;;15.19;43.10;100740.16;1661242;85;25856;-66
2022/05/03 09:40:29;;;;;;;8.70;6.12;;;;;;;15.43;43.25;100752.64;1659507;84;98947;-67
2022/05/03 09:42:56;;;;;;;11.28;5.75;;;;;;;15.56;43.10;100747.73;1643653;85;26584;-66
2022/05/03 09:45:25;;;;;;;10.95;6.08;;;;;;;15.63;43.17;100750.92;1639462;85;99215;-65
2022/05/03 09:47:56;;;;;;;11.63;5.95;;;;;;;15.72;42.97;100751.69;1659324;84;27449;-65
2022/05/03 09:50:44;;;;;;;13.95;5.17;;;;;;;15.80;42.73;100753.91;1647655;85;25800;-67
2022/05/03 09:53:21;;;;;;;15.28;5.60;;;;;;;15.75;42.41;100754.20;1664673;85;98938;-65
2022/05/03 09:55:50;;;;;;;18.65;6.05;;;;;;;15.65;42.43;100752.17;1662936;85;26364;-66
2022/05/03 09:58:19;;;;;;;12.98;5.67;;;;;;;15.70;42.41;100759.51;1658898;85;99251;-66
2022/05/03 10:00:48;;;;;;;8.18;5.15;;;;;;;15.72;42.22;100758.94;1652077;86;27503;-65
2022/05/03 10:03:16;;;;;;;13.13;5.37;;;;;;;15.75;42.35;100745.23;1655779;86;98901;-65
2022/05/03 10:05:48;;;;;;;18.60;6.47;;;;;;;15.77;42.39;100738.76;1653247;86;25833;-65
2022/05/03 10:08:17;;;;;;;16.35;5.55;;;;;;;15.86;42.10;100757.09;1641886;85;26234;-65
2022/05/03 10:10:43;;;;;;;11.78;6.08;;;;;;;15.86;42.20;100748.98;1651888;86;97982;-64
2022/05/03 10:13:15;;;;;;;14.20;5.10;;;;;;;15.85;41.81;100744.55;1655328;86;27415;-67
2022/05/03 10:21:28;;;;;;;19.30;5.95;;;;;;;16.01;41.83;100740.86;1642546;86;99118;-64
2022/05/03 10:24:11;;;;;;;11.48;6.10;;;;;;;16.10;41.49;100730.80;1654789;86;25794;-66
2022/05/03 10:27:10;;;;;;;14.20;6.10;;;;;;;16.20;41.35;100736.00;1651176;85;27427;-67
2022/05/03 10:29:36;;;;;;;15.88;6.17;;;;;;;16.11;41.19;100736.11;1638555;86;26713;-67
2022/05/03 10:32:09;;;;;;;15.35;5.75;;;;;;;16.04;40.98;100742.02;1640148;85;26325;-66
2022/05/03 10:34:55;;;;;;;10.75;5.87;;;;;;;16.16;40.99;100733.11;1665041;84;98992;-66
2022/05/03 10:37:36;;;;;;;11.20;4.65;;;;;;;16.30;40.78;100747.09;1660625;84;26459;-65
2022/05/03 10:40:12;;;;;;;11.55;4.85;;;;;;;16.13;40.27;100726.06;1662408;85;98940;-65
2022/05/03 10:42:40;;;;;;;11.08;4.72;;;;;;;16.23;40.37;100736.67;1656002;85;26415;-64
2022/05/03 10:45:16;;;;;;;5.08;3.62;;;;;;;16.44;40.44;100738.45;1651163;86;25747;-65
2022/05/03 10:47:54;;;;;;;8.73;4.22;;;;;;;16.57;39.64;100735.80;1651181;85;98922;-65
2022/05/03 10:50:31;;;;;;;7.22;4.22;;;;;;;16.56;39.65;100733.58;1656599;85;25770;-65
2022/05/03 10:53:05;;;;;;;19.07;4.35;;;;;;;16.63;39.49;100735.38;1655409;85;98756;-65
2022/05/03 10:55:52;;;;;;;;;;;;;;;;;;;;;
2022/05/03 10:58:31;;;;;;;8.83;3.50;;;;;;;16.86;38.79;100732.52;1662981;84;98919;-65
2022/05/03 11:01:20;;;;;;;8.63;4.22;;;;;;;16.91;38.89;100727.66;1668856;85;26339;-64
2022/05/03 11:04:01;;;;;;;6.28;3.98;;;;;;;17.02;38.76;100725.56;1661512;85;98910;-64
2022/05/03 11:06:37;;;;;;;26.57;5.17;;;;;;;17.11;38.56;100724.44;1663086;85;27428;-65
2022/05/03 11:11:47;;;;;;;6.20;4.53;;;;;;;17.34;38.03;100724.69;1659703;85;98669;-63
2022/05/03 11:14:25;;;;;;;7.47;4.53;;;;;;;17.30;37.85;100710.97;1658894;85;26301;-63
2022/05/03 11:17:06;;;;;;;6.00;3.85;;;;;;;17.40;38.00;100712.92;1654587;85;98879;-58
2022/05/03 11:19:36;;;;;;;16.17;4.20;;;;;;;17.50;37.73;100701.81;1669899;85;27388;-59
2022/05/03 11:22:13;;;;;;;9.20;4.40;;;;;;;17.64;37.12;100708.09;1662950;85;99167;-59
2022/05/03 11:24:45;;;;;;;7.47;3.45;;;;;;;17.71;37.40;100704.87;1661637;84;25785;-59
2022/05/03 11:27:14;;;;;;;3.85;2.90;;;;;;;17.77;37.27;100701.71;1680132;84;26580;-59
2022/05/03 11:29:48;;;;;;;9.10;3.15;;;;;;;17.56;36.44;100692.87;1663492;85;99315;-59
2022/05/03 11:32:16;;;;;;;5.75;2.75;;;;;;;17.42;36.52;100696.56;1677139;84;27489;-58
2022/05/03 11:34:44;;;;;;;7.50;3.27;;;;;;;17.37;36.18;100697.38;1656771;85;97794;-59
2022/05/03 11:37:12;;;;;;;12.68;2.05;;;;;;;17.25;36.05;100704.52;1662929;84;25697;-59
2022/05/03 11:39:38;;;;;;;5.50;3.25;;;;;;;17.14;36.33;100693.57;1665206;84;98998;-61
2022/05/03 11:42:13;;;;;;;10.18;3.15;;;;;;;17.19;36.13;100688.70;1681842;83;26669;-61
2022/05/03 11:44:47;;;;;;;6.92;2.00;;;;;;;17.11;36.18;100697.36;1662040;85;28144;-60
2022/05/03 11:47:11;;;;;;;2.25;2.02;;;;;;;17.21;36.18;100697.59;1676404;83;98805;-62
2022/05/03 11:49:40;;;;;;;4.65;1.77;;;;;;;17.30;36.12;100702.84;1662137;85;25927;-60
2022/05/03 11:57:42;;;;;;;8.15;2.10;;;;;;;17.43;35.75;100701.00;1665494;85;99168;-59
2022/05/03 12:00:17;;;;;;;5.53;2.02;;;;;;;17.41;35.31;100705.66;1672057;84;25859;-61
2022/05/03 12:02:45;;;;;;;4.70;1.80;;;;;;;17.36;35.57;100699.70;1664924;85;25814;-59
2022/05/03 12:05:20;;;;;;;8.93;2.62;;;;;;;17.44;35.05;100694.61;1658998;84;98707;-61
2022/05/03 12:07:55;;;;;;;3.80;1.70;;;;;;;17.58;35.39;100693.14;1640675;85;25733;-58
2022/05/03 12:10:29;;;;;;;13.00;2.10;;;;;;;17.89;35.50;100687.75;1663484;85;99250;-62
2022/05/03 12:13:17;;;;;;;4.12;1.37;;;;;;;18.06;34.78;100689.23;1663878;85;26103;-61
2022/05/03 12:16:00;;;;;;;2.40;1.35;;;;;;;18.20;33.68;100682.29;1662685;85;99051;-60
2022/05/03 12:18:42;;;;;;;7.97;1.80;;;;;;;18.16;33.34;100686.21;1639499;86;25830;-61
2022/05/03 12:21:19;;;;;;;3.37;1.30;;;;;;;18.16;33.17;100684.85;1661526;85;25797;-62
2022/05/03 12:23:49;;;;;;;3.67;1.20;;;;;;;18.25;32.37;100687.34;1665611;85;97722;-62